createdAt,value
2023-05-06T00:00:50.342Z,14.25
2023-05-06T00:01:50.329Z,14.20
2023-05-06T00:02:50.499Z,14.15
2023-05-06T00:03:50.425Z,14.14
2023-05-06T00:04:50.421Z,14.18
2023-05-06T00:05:50.311Z,14.15
2023-05-06T00:06:50.279Z,14.17
2023-05-06T00:07:50.316Z,14.09
2023-05-06T00:08:50.286Z,14.06
2023-05-06T00:09:50.249Z,14.04
2023-05-06T00:10:50.288Z,13.89
2023-05-06T00:11:50.230Z,13.85
2023-05-06T00:12:50.221Z,13.78
2023-05-06T00:13:51.231Z,13.81
2023-05-06T00:14:50.205Z,13.78
2023-05-06T00:15:50.265Z,13.64
2023-05-06T00:16:50.269Z,13.54
2023-05-06T00:17:50.230Z,13.45
2023-05-06T00:18:50.230Z,13.54
2023-05-06T00:19:50.154Z,13.51
2023-05-06T00:20:50.159Z,13.63
2023-05-06T00:21:50.160Z,13.54
2023-05-06T00:22:50.130Z,13.60
2023-05-06T00:23:50.123Z,13.59
2023-05-06T00:24:50.155Z,13.60
2023-05-06T00:25:50.169Z,13.57
2023-05-06T00:26:50.112Z,13.70
2023-05-06T00:27:50.088Z,13.63
2023-05-06T00:28:50.077Z,13.75
2023-05-06T00:29:50.059Z,13.71
2023-05-06T00:30:50.104Z,13.75
2023-05-06T00:31:50.139Z,13.81
2023-05-06T00:32:50.103Z,13.78
2023-05-06T00:33:50.043Z,13.85
2023-05-06T00:34:50.055Z,13.96
2023-05-06T00:35:50.031Z,14.04
2023-05-06T00:36:49.990Z,13.95
2023-05-06T00:37:49.982Z,13.89
2023-05-06T00:38:49.992Z,13.95
2023-05-06T00:39:49.994Z,13.97
2023-05-06T00:40:50.007Z,13.96
2023-05-06T00:41:49.958Z,13.97
2023-05-06T00:42:49.977Z,13.95
2023-05-06T00:43:49.931Z,13.89
2023-05-06T00:44:49.933Z,13.77
2023-05-06T00:45:49.932Z,13.73
2023-05-06T00:46:49.979Z,13.66
2023-05-06T00:47:50.153Z,13.66
2023-05-06T00:48:49.909Z,13.64
2023-05-06T00:49:49.872Z,13.69
2023-05-06T00:50:49.916Z,13.55
2023-05-06T00:51:49.856Z,13.60
2023-05-06T00:52:49.848Z,13.64
2023-05-06T00:53:49.838Z,13.57
2023-05-06T00:54:49.831Z,13.69
2023-05-06T00:55:49.826Z,13.62
2023-05-06T00:56:49.797Z,13.57
2023-05-06T00:57:49.791Z,13.75
2023-05-06T00:58:49.779Z,13.73
2023-05-06T00:59:49.793Z,13.60
2023-05-06T01:00:49.778Z,13.71
2023-05-06T01:01:49.761Z,13.78
2023-05-06T01:02:49.853Z,13.77
2023-05-06T01:03:49.850Z,13.73
2023-05-06T01:04:49.958Z,13.78
2023-05-06T01:05:49.745Z,13.71
2023-05-06T01:06:49.701Z,13.89
2023-05-06T01:07:49.721Z,13.81
2023-05-06T01:08:49.721Z,13.81
2023-05-06T01:09:49.694Z,13.79
2023-05-06T01:10:49.709Z,13.81
2023-05-06T01:11:50.666Z,13.71
2023-05-06T01:12:49.739Z,13.70
2023-05-06T01:13:49.667Z,13.70
2023-05-06T01:14:49.626Z,13.71
2023-05-06T01:15:49.664Z,13.73
2023-05-06T01:16:49.675Z,13.62
2023-05-06T01:17:49.647Z,13.55
2023-05-06T01:18:49.607Z,13.60
2023-05-06T01:19:49.646Z,13.52
2023-05-06T01:20:49.573Z,13.63
2023-05-06T01:21:49.642Z,13.64
2023-05-06T01:22:50.341Z,13.57
2023-05-06T01:23:49.542Z,13.67
2023-05-06T01:24:49.535Z,13.62
2023-05-06T01:25:49.520Z,13.69
2023-05-06T01:26:49.534Z,13.67
2023-05-06T01:27:49.506Z,13.73
2023-05-06T01:28:49.518Z,13.78
2023-05-06T01:29:49.489Z,13.85
2023-05-06T01:30:49.503Z,13.92
2023-05-06T01:31:49.453Z,13.89
2023-05-06T01:32:49.590Z,13.89
2023-05-06T01:33:49.462Z,13.95
2023-05-06T01:34:49.450Z,13.91
2023-05-06T01:35:49.510Z,13.87
2023-05-06T01:36:49.409Z,13.77
2023-05-06T01:37:49.449Z,13.59
2023-05-06T01:38:49.397Z,13.73
2023-05-06T01:39:49.397Z,13.67
2023-05-06T01:40:49.383Z,13.77
2023-05-06T01:41:49.370Z,13.64
2023-05-06T01:42:49.395Z,13.66
2023-05-06T01:43:49.354Z,13.69
2023-05-06T01:44:49.366Z,13.70
2023-05-06T01:45:49.395Z,13.75
2023-05-06T01:46:49.342Z,13.73
2023-05-06T01:47:49.348Z,13.71
2023-05-06T01:48:49.296Z,13.71
2023-05-06T01:49:49.307Z,13.78
2023-05-06T01:50:49.271Z,13.66
2023-05-06T01:51:49.355Z,13.55
2023-05-06T01:52:49.261Z,13.59
2023-05-06T01:53:49.248Z,13.63
2023-05-06T01:54:49.240Z,13.59
2023-05-06T01:55:49.230Z,13.59
2023-05-06T01:56:49.249Z,13.75
2023-05-06T01:57:49.206Z,13.69
2023-05-06T01:58:49.187Z,13.73
2023-05-06T01:59:49.185Z,13.63
2023-05-06T02:00:49.208Z,13.57
2023-05-06T02:01:49.212Z,13.60
2023-05-06T02:02:49.240Z,13.71
2023-05-06T02:03:49.225Z,13.54
2023-05-06T02:04:49.136Z,13.69
2023-05-06T02:05:49.148Z,13.67
2023-05-06T02:06:49.124Z,13.59
2023-05-06T02:07:49.188Z,13.69
2023-05-06T02:08:49.103Z,13.70
2023-05-06T02:09:49.070Z,13.59
2023-05-06T02:10:49.065Z,13.62
2023-05-06T02:11:49.068Z,13.67
2023-05-06T02:12:49.135Z,13.54
2023-05-06T02:13:49.045Z,13.70
2023-05-06T02:14:49.039Z,13.73
2023-05-06T02:15:49.085Z,13.63
2023-05-06T02:16:49.026Z,13.71
2023-05-06T02:17:49.002Z,13.66
2023-05-06T02:18:49.053Z,13.59
2023-05-06T02:19:48.992Z,13.57
2023-05-06T02:20:48.988Z,13.63
2023-05-06T02:21:48.973Z,13.60
2023-05-06T02:22:48.961Z,13.44
2023-05-06T02:23:48.975Z,13.46
2023-05-06T02:24:49.020Z,13.49
2023-05-06T02:25:48.979Z,13.42
2023-05-06T02:26:48.942Z,13.38
2023-05-06T02:27:48.910Z,13.39
2023-05-06T02:28:48.896Z,13.45
2023-05-06T02:29:48.954Z,13.42
2023-05-06T02:30:48.887Z,13.33
2023-05-06T02:31:48.953Z,13.46
2023-05-06T02:32:48.943Z,13.41
2023-05-06T02:33:48.869Z,13.41
2023-05-06T02:34:48.850Z,13.41
2023-05-06T02:35:48.860Z,13.32
2023-05-06T02:36:48.831Z,13.30
2023-05-06T02:37:48.836Z,13.29
2023-05-06T02:38:48.797Z,13.29
2023-05-06T02:39:49.850Z,13.25
2023-05-06T02:40:48.795Z,13.33
2023-05-06T02:41:48.784Z,13.28
2023-05-06T02:42:48.838Z,13.33
2023-05-06T02:43:48.763Z,13.38
2023-05-06T02:44:48.753Z,13.33
2023-05-06T02:45:48.754Z,13.39
2023-05-06T02:46:48.758Z,13.42
2023-05-06T02:47:48.754Z,13.42
2023-05-06T02:48:48.733Z,13.39
2023-05-06T02:49:48.704Z,13.52
2023-05-06T02:50:48.697Z,13.49
2023-05-06T02:51:48.700Z,13.52
2023-05-06T02:52:48.702Z,13.54
2023-05-06T02:53:48.658Z,13.51
2023-05-06T02:54:48.685Z,13.39
2023-05-06T02:55:48.711Z,13.49
2023-05-06T02:56:48.636Z,13.49
2023-05-06T02:57:48.655Z,13.45
2023-05-06T02:58:48.615Z,13.22
2023-05-06T02:59:48.619Z,13.15
2023-05-06T03:00:48.614Z,13.29
2023-05-06T03:01:48.615Z,13.28
2023-05-06T03:02:48.656Z,13.11
2023-05-06T03:03:48.603Z,13.26
2023-05-06T03:04:48.626Z,13.23
2023-05-06T03:05:48.673Z,13.20
2023-05-06T03:06:48.525Z,13.25
2023-05-06T03:07:48.532Z,13.25
2023-05-06T03:08:48.533Z,13.38
2023-05-06T03:09:48.539Z,13.32
2023-05-06T03:10:48.491Z,13.41
2023-05-06T03:11:48.541Z,13.25
2023-05-06T03:12:48.493Z,13.17
2023-05-06T03:13:48.458Z,13.19
2023-05-06T03:14:48.488Z,13.12
2023-05-06T03:15:48.440Z,13.19
2023-05-06T03:16:48.467Z,13.20
2023-05-06T03:17:48.473Z,13.10
2023-05-06T03:18:48.423Z,13.05
2023-05-06T03:19:48.441Z,13.12
2023-05-06T03:20:48.406Z,13.15
2023-05-06T03:21:48.464Z,13.22
2023-05-06T03:22:48.394Z,13.26
2023-05-06T03:23:48.352Z,13.20
2023-05-06T03:24:48.387Z,13.11
2023-05-06T03:25:48.366Z,13.19
2023-05-06T03:27:21.372Z,13.14
2023-05-06T03:27:48.320Z,13.12
2023-05-06T03:28:48.330Z,13.25
2023-05-06T03:29:48.483Z,13.23
2023-05-06T03:30:48.284Z,13.32
2023-05-06T03:31:48.281Z,13.36
2023-05-06T03:32:48.314Z,13.22
2023-05-06T03:33:48.270Z,13.33
2023-05-06T03:34:48.259Z,13.32
2023-05-06T03:35:48.270Z,13.29
2023-05-06T03:36:48.226Z,13.14
2023-05-06T03:37:48.282Z,13.23
2023-05-06T03:38:48.231Z,13.29
2023-05-06T03:39:48.210Z,13.22
2023-05-06T03:40:49.198Z,13.20
2023-05-06T03:41:48.183Z,13.23
2023-05-06T03:42:48.259Z,13.25
2023-05-06T03:43:48.168Z,13.23
2023-05-06T03:44:48.206Z,13.15
2023-05-06T03:45:48.198Z,13.15
2023-05-06T03:46:48.170Z,13.22
2023-05-06T03:47:48.442Z,13.10
2023-05-06T03:48:48.114Z,13.14
2023-05-06T03:49:48.126Z,13.05
2023-05-06T03:50:48.103Z,13.07
2023-05-06T03:51:48.100Z,13.05
2023-05-06T03:52:48.115Z,13.12
2023-05-06T03:53:48.078Z,13.10
2023-05-06T03:54:48.066Z,13.04
2023-05-06T03:55:48.068Z,12.93
2023-05-06T03:56:48.032Z,12.85
2023-05-06T03:57:48.082Z,12.85
2023-05-06T03:58:48.237Z,12.89
2023-05-06T03:59:48.022Z,12.89
2023-05-06T04:00:48.026Z,12.97
2023-05-06T04:01:48.013Z,13.04
2023-05-06T04:02:48.027Z,12.96
2023-05-06T04:03:48.041Z,12.96
2023-05-06T04:04:47.990Z,13.00
2023-05-06T04:05:47.953Z,13.00
2023-05-06T04:06:47.986Z,13.05
2023-05-06T04:07:47.936Z,13.01
2023-05-06T04:08:47.927Z,13.01
2023-05-06T04:09:47.936Z,12.93
2023-05-06T04:10:47.915Z,13.07
2023-05-06T04:11:47.895Z,12.95
2023-05-06T04:12:47.935Z,13.00
2023-05-06T04:13:47.884Z,12.92
2023-05-06T04:14:47.867Z,12.97
2023-05-06T04:15:47.997Z,12.95
2023-05-06T04:16:47.844Z,12.96
2023-05-06T04:17:47.923Z,12.95
2023-05-06T04:18:47.830Z,12.95
2023-05-06T04:19:47.914Z,13.05
2023-05-06T04:20:47.815Z,13.00
2023-05-06T04:21:47.799Z,12.85
2023-05-06T04:22:47.826Z,12.97
2023-05-06T04:23:47.833Z,12.74
2023-05-06T04:24:47.763Z,12.82
2023-05-06T04:25:47.765Z,12.82
2023-05-06T04:26:47.775Z,12.83
2023-05-06T04:27:47.770Z,12.79
2023-05-06T04:28:47.764Z,12.83
2023-05-06T04:29:47.800Z,12.78
2023-05-06T04:30:47.835Z,12.85
2023-05-06T04:31:47.759Z,12.90
2023-05-06T04:32:47.712Z,12.79
2023-05-06T04:33:47.700Z,12.78
2023-05-06T04:34:47.697Z,12.82
2023-05-06T04:35:47.707Z,12.92
2023-05-06T04:36:47.667Z,12.78
2023-05-06T04:37:47.649Z,12.86
2023-05-06T04:38:47.686Z,12.86
2023-05-06T04:39:47.627Z,12.74
2023-05-06T04:40:47.641Z,12.78
2023-05-06T04:41:47.621Z,12.70
2023-05-06T04:42:47.598Z,12.68
2023-05-06T04:43:47.600Z,12.56
2023-05-06T04:44:47.593Z,12.57
2023-05-06T04:45:47.672Z,12.57
2023-05-06T04:46:47.676Z,12.56
2023-05-06T04:47:47.650Z,12.50
2023-05-06T04:48:47.553Z,12.52
2023-05-06T04:49:47.558Z,12.54
2023-05-06T04:50:47.536Z,12.68
2023-05-06T04:51:47.518Z,12.64
2023-05-06T04:52:47.525Z,12.75
2023-05-06T04:53:47.521Z,12.67
2023-05-06T04:54:47.496Z,12.62
2023-05-06T04:55:47.501Z,12.64
2023-05-06T04:56:47.461Z,12.56
2023-05-06T04:57:47.480Z,12.70
2023-05-06T04:58:47.449Z,12.70
2023-05-06T04:59:47.438Z,12.67
2023-05-06T05:00:47.463Z,12.75
2023-05-06T05:01:47.436Z,12.70
2023-05-06T05:02:47.529Z,12.75
2023-05-06T05:03:47.416Z,12.72
2023-05-06T05:04:47.412Z,12.70
2023-05-06T05:05:47.373Z,12.71
2023-05-06T05:06:47.395Z,12.70
2023-05-06T05:07:47.371Z,12.70
2023-05-06T05:08:47.353Z,12.78
2023-05-06T05:09:47.353Z,12.70
2023-05-06T05:10:47.351Z,12.62
2023-05-06T05:11:47.403Z,12.60
2023-05-06T05:12:47.367Z,12.52
2023-05-06T05:13:47.358Z,12.62
2023-05-06T05:14:47.298Z,12.59
2023-05-06T05:15:47.287Z,12.53
2023-05-06T05:16:47.372Z,12.54
2023-05-06T05:17:47.338Z,12.57
2023-05-06T05:18:47.251Z,12.49
2023-05-06T05:19:47.242Z,12.62
2023-05-06T05:20:47.242Z,12.49
2023-05-06T05:21:47.245Z,12.62
2023-05-06T05:22:47.247Z,12.42
2023-05-06T05:23:47.206Z,12.49
2023-05-06T05:24:47.188Z,12.56
2023-05-06T05:25:47.194Z,12.60
2023-05-06T05:26:47.226Z,12.57
2023-05-06T05:27:47.314Z,12.64
2023-05-06T05:28:47.157Z,12.77
2023-05-06T05:29:47.198Z,12.90
2023-05-06T05:30:47.297Z,12.89
2023-05-06T05:31:47.184Z,12.92
2023-05-06T05:32:47.127Z,12.86
2023-05-06T05:33:47.139Z,12.82
2023-05-06T05:34:47.284Z,12.90
2023-05-06T05:35:47.093Z,12.95
2023-05-06T05:36:47.070Z,13.01
2023-05-06T05:37:47.072Z,13.04
2023-05-06T05:38:47.063Z,13.05
2023-05-06T05:39:47.052Z,13.08
2023-05-06T05:40:47.058Z,13.42
2023-05-06T05:41:47.067Z,13.46
2023-05-06T05:42:47.016Z,13.59
2023-05-06T05:43:47.044Z,13.79
2023-05-06T05:44:47.003Z,14.10
2023-05-06T05:45:47.017Z,14.51
2023-05-06T05:46:47.079Z,14.68
2023-05-06T05:47:47.099Z,14.73
2023-05-06T05:48:46.966Z,15.13
2023-05-06T05:49:46.963Z,15.23
2023-05-06T05:50:47.009Z,15.17
2023-05-06T05:51:46.951Z,15.32
2023-05-06T05:52:46.946Z,15.23
2023-05-06T05:53:46.908Z,15.20
2023-05-06T05:54:46.897Z,15.07
2023-05-06T05:55:46.882Z,14.99
2023-05-06T05:56:46.913Z,15.02
2023-05-06T05:57:46.864Z,15.09
2023-05-06T05:58:46.913Z,15.11
2023-05-06T05:59:46.854Z,15.29
2023-05-06T06:00:47.868Z,15.44
2023-05-06T06:01:46.841Z,15.64
2023-05-06T06:02:46.866Z,15.87
2023-05-06T06:03:46.998Z,16.33
2023-05-06T06:04:46.838Z,16.97
2023-05-06T06:05:46.786Z,18.25
2023-05-06T06:06:46.786Z,19.06
2023-05-06T06:07:46.771Z,19.16
2023-05-06T06:08:46.787Z,19.40
2023-05-06T06:09:46.800Z,19.08
2023-05-06T06:10:46.751Z,19.14
2023-05-06T06:11:46.735Z,19.10
2023-05-06T06:12:46.766Z,18.87
2023-05-06T06:13:46.720Z,18.82
2023-05-06T06:14:46.748Z,18.62
2023-05-06T06:15:46.781Z,18.52
2023-05-06T06:16:46.767Z,18.48
2023-05-06T06:17:46.743Z,18.47
2023-05-06T06:18:46.707Z,18.41
2023-05-06T06:19:46.705Z,18.41
2023-05-06T06:20:46.651Z,17.89
2023-05-06T06:21:46.643Z,17.52
2023-05-06T06:22:46.706Z,17.43
2023-05-06T06:23:46.655Z,17.43
2023-05-06T06:24:46.611Z,17.55
2023-05-06T06:25:46.602Z,18.10
2023-05-06T06:26:46.586Z,19.10
2023-05-06T06:27:46.610Z,19.95
2023-05-06T06:28:46.603Z,20.80
2023-05-06T06:29:46.633Z,20.91
2023-05-06T06:30:46.554Z,20.42
2023-05-06T06:31:46.629Z,19.96
2023-05-06T06:32:46.565Z,20.06
2023-05-06T06:33:46.568Z,20.10
2023-05-06T06:34:46.514Z,19.80
2023-05-06T06:35:46.521Z,19.39
2023-05-06T06:36:46.496Z,20.32
2023-05-06T06:37:46.492Z,21.19
2023-05-06T06:38:46.506Z,22.00
2023-05-06T06:39:46.489Z,22.98
2023-05-06T06:40:46.485Z,23.61
2023-05-06T06:41:46.448Z,23.65
2023-05-06T06:42:46.441Z,24.35
2023-05-06T06:43:46.456Z,24.68
2023-05-06T06:44:46.428Z,24.73
2023-05-06T06:45:46.472Z,24.99
2023-05-06T06:46:46.403Z,23.66
2023-05-06T06:47:46.418Z,22.15
2023-05-06T06:48:46.390Z,20.98
2023-05-06T06:49:46.374Z,20.54
2023-05-06T06:50:47.385Z,19.96
2023-05-06T06:51:46.353Z,19.47
2023-05-06T06:52:46.353Z,19.10
2023-05-06T06:53:46.403Z,18.91
2023-05-06T06:54:46.335Z,18.84
2023-05-06T06:55:46.335Z,18.84
2023-05-06T06:56:46.324Z,19.06
2023-05-06T06:57:47.305Z,19.13
2023-05-06T06:58:46.290Z,18.84
2023-05-06T06:59:46.273Z,18.72
2023-05-06T07:00:46.294Z,18.60
2023-05-06T07:01:46.336Z,18.75
2023-05-06T07:02:46.329Z,18.92
2023-05-06T07:03:46.291Z,20.06
2023-05-06T07:04:46.272Z,20.95
2023-05-06T07:05:46.238Z,21.49
2023-05-06T07:06:46.240Z,22.27
2023-05-06T07:07:46.230Z,23.32
2023-05-06T07:08:46.196Z,24.03
2023-05-06T07:09:46.187Z,24.46
2023-05-06T07:10:46.240Z,25.20
2023-05-06T07:11:46.170Z,25.72
2023-05-06T07:12:46.230Z,26.32
2023-05-06T07:13:46.260Z,26.52
2023-05-06T07:14:46.156Z,26.80
2023-05-06T07:15:46.141Z,26.92
2023-05-06T07:16:47.092Z,26.89
2023-05-06T07:17:47.137Z,27.34
2023-05-06T07:18:46.110Z,27.50
2023-05-06T07:19:46.096Z,27.60
2023-05-06T07:20:46.078Z,27.17
2023-05-06T07:21:46.140Z,26.47
2023-05-06T07:22:46.068Z,25.45
2023-05-06T07:23:46.081Z,25.21
2023-05-06T07:24:46.044Z,24.58
2023-05-06T07:25:46.036Z,24.39
2023-05-06T07:26:46.152Z,24.30
2023-05-06T07:27:46.044Z,23.48
2023-05-06T07:28:46.020Z,23.48
2023-05-06T07:29:46.013Z,23.65
2023-05-06T07:30:46.074Z,23.66
2023-05-06T07:31:45.984Z,24.37
2023-05-06T07:32:46.009Z,24.55
2023-05-06T07:33:45.967Z,24.80
2023-05-06T07:34:45.971Z,24.16
2023-05-06T07:35:45.942Z,23.72
2023-05-06T07:36:45.943Z,22.97
2023-05-06T07:37:45.976Z,22.15
2023-05-06T07:38:45.928Z,21.71
2023-05-06T07:39:45.941Z,20.97
2023-05-06T07:40:45.905Z,21.01
2023-05-06T07:41:45.892Z,21.59
2023-05-06T07:42:45.879Z,22.05
2023-05-06T07:43:45.881Z,22.82
2023-05-06T07:44:45.873Z,23.72
2023-05-06T07:45:45.847Z,24.46
2023-05-06T07:46:45.910Z,25.14
2023-05-06T07:47:45.993Z,25.30
2023-05-06T07:48:45.895Z,25.50
2023-05-06T07:49:45.873Z,25.61
2023-05-06T07:50:45.814Z,25.88
2023-05-06T07:51:45.799Z,25.70
2023-05-06T07:52:45.794Z,25.50
2023-05-06T07:53:45.771Z,25.69
2023-05-06T07:54:45.865Z,25.90
2023-05-06T07:55:45.763Z,25.79
2023-05-06T07:56:45.746Z,25.69
2023-05-06T07:57:45.766Z,25.87
2023-05-06T07:58:45.735Z,26.15
2023-05-06T07:59:45.724Z,26.67
2023-05-06T08:00:45.721Z,26.36
2023-05-06T08:01:45.725Z,26.29
2023-05-06T08:02:45.763Z,26.39
2023-05-06T08:03:45.864Z,26.35
2023-05-06T08:04:45.771Z,25.35
2023-05-06T08:05:45.705Z,25.03
2023-05-06T08:06:45.647Z,24.85
2023-05-06T08:07:45.669Z,24.68
2023-05-06T08:08:45.642Z,24.99
2023-05-06T08:09:45.626Z,25.00
2023-05-06T08:10:45.653Z,24.50
2023-05-06T08:11:45.723Z,24.83
2023-05-06T08:12:45.715Z,24.87
2023-05-06T08:13:45.595Z,24.93
2023-05-06T08:14:45.599Z,24.99
2023-05-06T08:15:45.617Z,24.52
2023-05-06T08:16:45.604Z,23.48
2023-05-06T08:17:45.599Z,22.46
2023-05-06T08:18:45.584Z,21.82
2023-05-06T08:19:45.555Z,21.68
2023-05-06T08:20:45.546Z,22.02
2023-05-06T08:21:45.528Z,22.25
2023-05-06T08:22:45.527Z,21.71
2023-05-06T08:23:45.525Z,21.92
2023-05-06T08:24:45.595Z,22.40
2023-05-06T08:25:45.515Z,22.72
2023-05-06T08:26:45.513Z,22.51
2023-05-06T08:27:45.489Z,22.86
2023-05-06T08:28:45.468Z,23.23
2023-05-06T08:29:45.448Z,23.43
2023-05-06T08:30:45.500Z,23.60
2023-05-06T08:31:45.490Z,23.90
2023-05-06T08:32:45.434Z,24.00
2023-05-06T08:33:45.413Z,24.24
2023-05-06T08:34:45.397Z,24.35
2023-05-06T08:35:45.423Z,24.43
2023-05-06T08:36:45.381Z,24.52
2023-05-06T08:37:45.369Z,24.85
2023-05-06T08:38:45.378Z,24.50
2023-05-06T08:39:45.370Z,24.06
2023-05-06T08:40:45.404Z,23.75
2023-05-06T08:41:45.411Z,23.87
2023-05-06T08:42:45.318Z,24.05
2023-05-06T08:43:45.401Z,24.25
2023-05-06T08:44:45.344Z,24.08
2023-05-06T08:45:45.391Z,24.03
2023-05-06T08:46:45.370Z,24.34
2023-05-06T08:47:45.336Z,24.20
2023-05-06T08:48:45.422Z,24.22
2023-05-06T08:49:45.362Z,24.30
2023-05-06T08:50:45.248Z,24.34
2023-05-06T08:51:45.256Z,24.37
2023-05-06T08:52:45.254Z,24.58
2023-05-06T08:53:45.244Z,24.68
2023-05-06T08:54:45.276Z,24.78
2023-05-06T08:55:45.221Z,24.62
2023-05-06T08:56:45.219Z,24.65
2023-05-06T08:57:45.176Z,24.58
2023-05-06T08:58:45.175Z,24.64
2023-05-06T08:59:45.174Z,24.87
2023-05-06T09:00:45.166Z,24.83
2023-05-06T09:01:45.224Z,24.55
2023-05-06T09:02:45.266Z,24.53
2023-05-06T09:03:45.152Z,24.13
2023-05-06T09:04:45.150Z,24.00
2023-05-06T09:05:45.106Z,23.85
2023-05-06T09:06:45.116Z,24.10
2023-05-06T09:07:45.112Z,24.27
2023-05-06T09:08:45.106Z,24.53
2023-05-06T09:09:45.088Z,24.30
2023-05-06T09:10:45.065Z,24.21
2023-05-06T09:11:45.072Z,24.13
2023-05-06T09:12:45.082Z,24.27
2023-05-06T09:13:45.036Z,24.37
2023-05-06T09:14:45.087Z,23.88
2023-05-06T09:15:45.010Z,23.90
2023-05-06T09:16:45.081Z,23.85
2023-05-06T09:17:45.021Z,24.13
2023-05-06T09:18:44.978Z,23.63
2023-05-06T09:19:44.975Z,23.16
2023-05-06T09:20:44.997Z,23.00
2023-05-06T09:21:44.987Z,22.46
2023-05-06T09:22:44.967Z,22.14
2023-05-06T09:23:44.983Z,22.57
2023-05-06T09:24:44.919Z,22.52
2023-05-06T09:25:45.936Z,22.85
2023-05-06T09:26:52.620Z,22.82
2023-05-06T09:27:44.894Z,23.32
2023-05-06T09:28:45.884Z,23.65
2023-05-06T09:29:44.901Z,24.06
2023-05-06T09:30:44.937Z,24.31
2023-05-06T09:31:44.861Z,24.42
2023-05-06T09:32:44.880Z,24.80
2023-05-06T09:33:44.888Z,24.87
2023-05-06T09:34:44.910Z,24.93
2023-05-06T09:35:44.820Z,24.90
2023-05-06T09:36:44.874Z,25.10
2023-05-06T09:37:44.804Z,24.65
2023-05-06T09:38:44.797Z,24.02
2023-05-06T09:39:44.783Z,23.50
2023-05-06T09:40:44.788Z,23.65
2023-05-06T09:41:44.867Z,23.87
2023-05-06T09:42:44.763Z,23.91
2023-05-06T09:43:44.781Z,24.08
2023-05-06T09:44:44.799Z,24.24
2023-05-06T09:45:44.726Z,24.25
2023-05-06T09:46:44.727Z,23.93
2023-05-06T09:47:44.763Z,23.40
2023-05-06T09:48:44.690Z,22.91
2023-05-06T09:49:44.763Z,22.46
2023-05-06T09:50:44.728Z,22.86
2023-05-06T09:51:44.724Z,23.10
2023-05-06T09:52:44.666Z,23.39
2023-05-06T09:53:44.671Z,23.61
2023-05-06T09:54:44.662Z,23.84
2023-05-06T09:55:44.621Z,23.66
2023-05-06T09:56:44.649Z,23.39
2023-05-06T09:57:44.629Z,23.57
2023-05-06T09:58:45.601Z,23.61
2023-05-06T09:59:44.606Z,23.80
2023-05-06T10:00:44.604Z,23.68
2023-05-06T10:01:44.604Z,23.63
2023-05-06T10:02:44.895Z,23.42
2023-05-06T10:03:44.675Z,23.15
2023-05-06T10:04:45.979Z,22.97
2023-05-06T10:05:44.629Z,22.83
2023-05-06T10:06:44.644Z,22.80
2023-05-06T10:07:44.609Z,22.97
2023-05-06T10:08:44.596Z,23.00
2023-05-06T10:09:44.611Z,23.02
2023-05-06T10:10:45.495Z,23.10
2023-05-06T10:11:44.486Z,23.04
2023-05-06T10:12:44.659Z,22.94
2023-05-06T10:13:44.535Z,22.95
2023-05-06T10:14:44.451Z,22.90
2023-05-06T10:15:44.590Z,22.62
2023-05-06T10:16:44.618Z,22.25
2023-05-06T10:17:44.492Z,22.30
2023-05-06T10:18:44.524Z,22.22
2023-05-06T10:19:44.414Z,21.90
2023-05-06T10:20:44.402Z,22.00
2023-05-06T10:21:44.402Z,22.25
2023-05-06T10:22:44.429Z,22.52
2023-05-06T10:23:44.385Z,22.77
2023-05-06T10:24:44.467Z,22.92
2023-05-06T10:25:44.344Z,23.02
2023-05-06T10:26:44.372Z,23.04
2023-05-06T10:27:44.455Z,23.36
2023-05-06T10:28:44.325Z,23.48
2023-05-06T10:29:44.320Z,23.43
2023-05-06T10:30:44.372Z,23.38
2023-05-06T10:31:44.335Z,23.36
2023-05-06T10:32:44.285Z,23.48
2023-05-06T10:33:44.321Z,23.42
2023-05-06T10:34:44.266Z,23.50
2023-05-06T10:35:44.272Z,23.35
2023-05-06T10:36:44.246Z,23.33
2023-05-06T10:37:44.230Z,23.00
2023-05-06T10:38:44.244Z,22.90
2023-05-06T10:39:44.216Z,22.92
2023-05-06T10:40:44.297Z,22.65
2023-05-06T10:41:44.206Z,22.42
2023-05-06T10:42:44.191Z,22.14
2023-05-06T10:43:44.177Z,21.88
2023-05-06T10:44:46.100Z,21.62
2023-05-06T10:45:44.224Z,21.65
2023-05-06T10:46:44.139Z,21.34
2023-05-06T10:47:44.225Z,21.07
2023-05-06T10:48:44.212Z,21.17
2023-05-06T10:49:44.105Z,21.22
2023-05-06T10:50:46.677Z,21.31
2023-05-06T10:51:44.113Z,21.10
2023-05-06T10:52:44.098Z,21.14
2023-05-06T10:53:44.081Z,21.40
2023-05-06T10:54:44.140Z,21.54
2023-05-06T10:55:44.053Z,21.59
2023-05-06T10:56:46.335Z,21.86
2023-05-06T10:57:44.041Z,22.22
2023-05-06T10:58:44.048Z,22.12
2023-05-06T10:59:44.039Z,22.20
2023-05-06T11:00:44.016Z,22.20
2023-05-06T11:01:44.007Z,22.00
2023-05-06T11:02:46.175Z,22.22
2023-05-06T11:03:44.028Z,21.99
2023-05-06T11:04:43.994Z,22.10
2023-05-06T11:05:44.969Z,22.25
2023-05-06T11:06:43.957Z,22.45
2023-05-06T11:07:43.965Z,22.76
2023-05-06T11:08:46.461Z,22.79
2023-05-06T11:09:43.955Z,22.79
2023-05-06T11:10:44.022Z,22.62
2023-05-06T11:11:43.922Z,22.49
2023-05-06T11:12:43.960Z,22.45
2023-05-06T11:13:43.873Z,22.61
2023-05-06T11:14:43.875Z,22.24
2023-05-06T11:15:43.867Z,22.14
2023-05-06T11:16:43.947Z,22.15
2023-05-06T11:17:43.853Z,22.00
2023-05-06T11:18:43.875Z,21.83
2023-05-06T11:19:43.840Z,21.80
2023-05-06T11:20:43.819Z,21.99
2023-05-06T11:21:43.855Z,21.82
2023-05-06T11:22:43.796Z,21.59
2023-05-06T11:23:43.805Z,21.54
2023-05-06T11:24:43.792Z,21.56
2023-05-06T11:25:43.874Z,21.61
2023-05-06T11:26:43.811Z,21.65
2023-05-06T11:27:43.743Z,21.69
2023-05-06T11:28:43.760Z,21.84
2023-05-06T11:29:43.721Z,21.94
2023-05-06T11:30:43.753Z,22.15
2023-05-06T11:31:43.760Z,22.07
2023-05-06T11:32:43.738Z,21.79
2023-05-06T11:33:43.712Z,22.14
2023-05-06T11:34:43.686Z,22.22
2023-05-06T11:35:43.663Z,22.00
2023-05-06T11:36:43.657Z,22.03
2023-05-06T11:37:43.664Z,22.22
2023-05-06T11:38:43.660Z,22.31
2023-05-06T11:39:43.641Z,22.43
2023-05-06T11:40:43.625Z,22.67
2023-05-06T11:41:43.702Z,22.62
2023-05-06T11:42:43.662Z,22.39
2023-05-06T11:43:43.590Z,22.28
2023-05-06T11:44:43.592Z,22.28
2023-05-06T11:45:43.612Z,22.31
2023-05-06T11:46:43.732Z,22.27
2023-05-06T11:47:43.592Z,22.22
2023-05-06T11:48:43.531Z,22.37
2023-05-06T11:49:43.515Z,22.35
2023-05-06T11:50:43.568Z,22.28
2023-05-06T11:51:43.521Z,22.30
2023-05-06T11:52:43.507Z,22.25
2023-05-06T11:53:43.489Z,22.18
2023-05-06T11:54:43.581Z,21.99
2023-05-06T11:55:43.485Z,21.64
2023-05-06T11:56:43.469Z,21.74
2023-05-06T11:57:43.482Z,21.69
2023-05-06T11:58:43.465Z,21.69
2023-05-06T11:59:43.430Z,21.86
2023-05-06T12:00:43.417Z,22.17
2023-05-06T12:01:43.409Z,22.45
2023-05-06T12:02:43.435Z,22.25
2023-05-06T12:03:43.564Z,22.02
2023-05-06T12:04:43.426Z,21.71
2023-05-06T12:05:44.370Z,21.83
2023-05-06T12:06:43.471Z,21.86
2023-05-06T12:07:43.367Z,21.83
2023-05-06T12:08:43.356Z,22.00
2023-05-06T12:09:43.373Z,22.22
2023-05-06T12:10:43.322Z,22.37
2023-05-06T12:11:44.850Z,22.30
2023-05-06T12:12:43.383Z,22.46
2023-05-06T12:13:43.288Z,22.25
2023-05-06T12:14:43.364Z,22.30
2023-05-06T12:15:43.299Z,22.37
2023-05-06T12:16:43.398Z,22.40
2023-05-06T12:17:43.306Z,22.45
2023-05-06T12:18:43.243Z,22.27
2023-05-06T12:19:43.237Z,22.35
2023-05-06T12:20:43.229Z,22.24
2023-05-06T12:21:43.233Z,22.15
2023-05-06T12:22:43.223Z,22.02
2023-05-06T12:23:43.273Z,21.99
2023-05-06T12:24:43.208Z,22.00
2023-05-06T12:25:43.185Z,22.00
2023-05-06T12:26:43.164Z,22.10
2023-05-06T12:27:43.180Z,22.24
2023-05-06T12:28:43.146Z,22.42
2023-05-06T12:29:43.160Z,22.54
2023-05-06T12:30:43.185Z,22.64
2023-05-06T12:31:43.148Z,22.58
2023-05-06T12:32:43.149Z,22.40
2023-05-06T12:33:43.120Z,22.31
2023-05-06T12:34:43.100Z,22.42
2023-05-06T12:35:43.080Z,22.15
2023-05-06T12:36:43.103Z,22.18
2023-05-06T12:37:43.067Z,22.00
2023-05-06T12:38:43.053Z,22.17
2023-05-06T12:39:43.059Z,22.42
2023-05-06T12:40:43.093Z,22.42
2023-05-06T12:41:43.072Z,22.21
2023-05-06T12:42:43.045Z,22.14
2023-05-06T12:43:43.011Z,22.37
2023-05-06T12:44:42.994Z,22.45
2023-05-06T12:45:42.989Z,22.62
2023-05-06T12:46:42.976Z,22.65
2023-05-06T12:47:42.998Z,22.73
2023-05-06T12:48:42.957Z,22.75
2023-05-06T12:49:42.945Z,22.65
2023-05-06T12:50:42.937Z,22.61
2023-05-06T12:51:43.484Z,22.57
2023-05-06T12:52:42.928Z,22.75